ADDS METAR Data INFO
IDs: Format: Raw Decoded Include TAF

Data at: 0805 UTC 23 Jul 2018

KVJI 230755Z AUTO 00000KT 10SM CLR 19/19 A2986 RMK AO2 T01880188
KVJI 230735Z AUTO 10004KT 10SM SCT036 19/19 A2985 RMK AO2 T01860186
KVJI 230715Z AUTO 00000KT 10SM SCT036 19/19 A2985 RMK AO2 T01860186
KVJI 230655Z AUTO 11003KT 10SM SCT038 19/19 A2985 RMK AO2 T01860186
KVJI 230635Z AUTO 08003KT 10SM CLR 19/19 A2985 RMK AO2 T01850185
KVJI 230615Z AUTO 11004KT 7SM CLR 18/18 A2985 RMK AO2 T01830183
KVJI 230555Z AUTO 00000KT 10SM CLR 19/19 A2985 RMK AO2 T01850185 10227 20185 402450185
KVJI 230535Z AUTO 00000KT 10SM CLR 19/19 A2986 RMK AO2 T01860186
KVJI 230515Z AUTO 09004KT 10SM CLR 19/19 A2987 RMK AO2 T01880188
KVJI 230455Z AUTO 00000KT 10SM CLR 19/19 A2988 RMK AO2 T01890188
KVJI 230435Z AUTO 07003KT 10SM SCT120 19/19 A2989 RMK AO2 T01910190
KVJI 230415Z AUTO 00000KT 10SM BKN110 19/19 A2988 RMK AO2 T01930192
KVJI 230355Z AUTO 00000KT 10SM BKN110 19/19 A2989 RMK AO2 T01910190
KVJI 230335Z AUTO 00000KT 10SM SCT120 19/19 A2989 RMK AO2 T01920190
KVJI 230315Z AUTO 10003KT 10SM CLR 19/19 A2989 RMK AO2 T01910187
KVJI 230255Z AUTO 09005KT 10SM CLR 19/19 A2988 RMK AO2 T01910185
KVJI 230235Z AUTO 00000KT 10SM CLR 19/18 A2987 RMK AO2 T01910183
KVJI 230215Z AUTO 00000KT 10SM CLR 20/18 A2986 RMK AO2 T01970182
KVJI 230155Z AUTO 00000KT 10SM SCT110 20/18 A2985 RMK AO2 T02010183
KVJI 230135Z AUTO 27003KT 10SM SCT110 20/18 A2985 RMK AO2 LTG DSNT NW T02040183
KVJI 230115Z AUTO 26003KT 10SM SCT020 SCT025 SCT080 21/18 A2985 RMK AO2 T02070182
KVJI 230055Z AUTO 27004KT 10SM SCT018 BKN025 OVC080 22/18 A2986 RMK AO2 T02150181
KVJI 230035Z AUTO 27007KT 10SM BKN020 OVC031 22/19 A2986 RMK AO2 LTG DSNT NW T02220189
KVJI 230015Z AUTO 00000KT 10SM BKN022 OVC060 23/19 A2985 RMK AO2 T02260191
KVJI 222355Z AUTO 00000KT 10SM SCT024 SCT036 BKN060 23/19 A2985 RMK AO2 LTG DSNT N 60003 T02270187 10245 20207
KVJI 222335Z AUTO 20003KT 10SM SCT026 SCT030 SCT037 23/18 A2984 RMK AO2 T02340184
KVJI 222315Z AUTO 00000KT 10SM CLR 24/18 A2983 RMK AO2 LTG DSNT N T02370182
KVJI 222255Z AUTO 00000KT 10SM SCT022 24/18 A2982 RMK AO2 LTG DSNT N T02380180
KVJI 222235Z AUTO 25006KT 10SM BKN022 24/19 A2982 RMK AO2 LTG DSNT W THRU NE T02420187
KVJI 222215Z AUTO 21004KT 10SM BKN020 BKN080 24/19 A2982 RMK AO2 LTG DSNT NE T02400186
KVJI 222155Z AUTO 26005KT 10SM SCT022 BKN080 24/19 A2982 RMK AO2 T02350190
KVJI 222135Z AUTO 22007KT 10SM VCTS BKN018 BKN023 OVC120 24/19 A2982 RMK AO2 LTG DSNT NE AND E T02390191
KVJI 222115Z AUTO 24007KT 10SM BKN018 BKN029 OVC110 23/19 A2982 RMK AO2 LTG DSNT E T02280194
KVJI 222055Z AUTO 28006KT 10SM VCTS SCT012 BKN028 OVC100 23/20 A2983 RMK AO2 LTG DSNT NE 60003 T02270196
KVJI 222035Z AUTO 29006KT 10SM OVC010 21/19 A2983 RMK AO2 LTG DSNT NE T02120193
KVJI 222015Z AUTO 26005KT 10SM BKN010 OVC014 22/20 A2982 RMK AO2 LTG DSNT N AND SE T02170200
KVJI 221955Z AUTO 29004KT 10SM TS BKN016 BKN025 OVC060 23/20 A2981 RMK AO2 P0003 T02250195
KVJI 221935Z AUTO 28006KT 10SM SCT014 BKN055 OVC070 22/20 A2981 RMK AO2 LTG DSNT NE AND SW P0003 T02160195
KVJI 221915Z AUTO 28006G18KT 7SM -RA SCT014 BKN034 OVC055 21/19 A2982 RMK AO2 LTG DSNT NW P0003 T02080187
KVJI 221855Z AUTO 32005KT 10SM SCT020 BKN026 OVC049 22/20 A2981 RMK AO2 LTG DSNT NW T02240195
KVJI 221835Z AUTO 33003KT 10SM BKN020 OVC032 22/19 A2981 RMK AO2 T02240193
KVJI 221815Z AUTO 21003KT 10SM BKN020 BKN027 OVC039 24/19 A2981 RMK AO2 LTG DSNT SW T02350193
KVJI 221755Z AUTO 16005KT 10SM BKN018 BKN039 24/20 A2981 RMK AO2 LTG DSNT SW 60004 T02440199 10245 20195
KVJI 221735Z AUTO 22006KT 10SM SCT016 SCT047 BKN100 24/20 A2982 RMK AO2 T02410199
KVJI 221715Z AUTO 24007KT 10SM SCT016 BKN048 OVC100 23/20 A2982 RMK AO2 LTG DSNT W T02340197
KVJI 221655Z AUTO 26006KT 10SM BKN016 BKN029 OVC085 23/20 A2983 RMK AO2 T02330200
KVJI 221635Z AUTO 26007KT 10SM SCT012 BKN019 OVC085 23/20 A2983 RMK AO2 T02300201
KVJI 221615Z AUTO 26006KT 10SM BKN011 BKN022 OVC120 22/21 A2983 RMK AO2 T02230205
KVJI 221555Z AUTO 26007KT 10SM BKN009 BKN014 OVC022 22/21 A2984 RMK AO2 T02160205
KVJI 221535Z AUTO 26005KT 10SM BKN009 OVC018 21/21 A2984 RMK AO2 T02140208
KVJI 221515Z AUTO 24004KT 10SM BKN007 BKN015 OVC020 21/21 A2984 RMK AO2 T02080205
KVJI 221455Z AUTO 27006KT 10SM BKN007 OVC013 21/20 A2983 RMK AO2 60004 T02050204
KVJI 221435Z AUTO 26004KT 10SM BKN007 BKN011 OVC023 21/21 A2983 RMK AO2 T02050205
KVJI 221415Z AUTO 28006KT 7SM BKN007 BKN011 OVC023 20/20 A2983 RMK AO2 T02020202
KVJI 221355Z AUTO 28003KT 7SM BKN007 OVC013 20/20 A2983 RMK AO2 T02020202
KVJI 221335Z AUTO 26003KT 7SM OVC007 20/20 A2983 RMK AO2 T02010201
KVJI 221315Z AUTO 26004KT 10SM OVC007 20/20 A2983 RMK AO2 T01990199
KVJI 221255Z AUTO 26003KT 10SM OVC009 20/20 A2982 RMK AO2 P0004 T01980198
KVJI 221235Z AUTO 25004KT 7SM BKN004 BKN008 OVC016 20/20 A2982 RMK AO2 P0004 T01960196
KVJI 221215Z AUTO 00000KT 4SM -RA OVC004 20/20 A2982 RMK AO2 P0004 T01950195
KVJI 221155Z AUTO 00000KT 1 3/4SM +RA OVC004 20/20 A2981 RMK AO2 P0036 60037 70043 T01950195 10196 20195
KVJI 221130Z AUTO 25004KT 1 1/2SM +RA OVC004 20/20 A2981 RMK AO2 P0013 T01960196
KVJI 221115Z AUTO 22003KT 7SM OVC004 20/20 A2980 RMK AO2 T01960196
KVJI 221055Z AUTO 24004KT 10SM OVC004 20/20 A2980 RMK AO2 T01960196
KVJI 221035Z AUTO 25004KT 10SM OVC004 20/20 A2980 RMK AO2 T01950195
KVJI 221015Z AUTO 25005KT 5SM -RA OVC004 20/20 A2980 RMK AO2 T01950195
KVJI 220955Z AUTO 25004KT 7SM OVC004 20/20 A2980 RMK AO2 P0001 T01950195
KVJI 220935Z AUTO 25005KT 7SM OVC004 20/20 A2980 RMK AO2 T01950195
KVJI 220915Z AUTO 27005KT 7SM OVC006 20/20 A2980 RMK AO2 T01950195
KVJI 220855Z AUTO 26005KT 7SM OVC006 20/20 A2980 RMK AO2 T01950195
KVJI 220835Z AUTO 26004KT 5SM BR BKN006 OVC009 20/20 A2980 RMK AO2 T01960196
KVJI 220815Z AUTO 27004KT 5SM BR OVC006 20/20 A2980 RMK AO2 T01950195
KVJI 220755Z AUTO 26005KT 7SM OVC006 20/20 A2980 RMK AO2 T01950195
KVJI 220735Z AUTO 25006KT 7SM BKN008 OVC013 20/20 A2981 RMK AO2 T01950195
KVJI 220715Z AUTO 25006KT 10SM BKN006 OVC013 20/20 A2981 RMK AO2 T01950195
KVJI 220655Z AUTO 26004KT 10SM BKN006 OVC013 20/20 A2982 RMK AO2 T01950195
KVJI 220635Z AUTO 25005KT 10SM BKN006 OVC011 20/20 A2982 RMK AO2 T01960196
KVJI 220615Z AUTO 23004KT 10SM BKN008 OVC013 20/20 A2982 RMK AO2 T01960196
KVJI 220555Z AUTO 25005KT 10SM OVC008 20/20 A2982 RMK AO2 T01960196 10216 20195 402910167
KVJI 220535Z AUTO 23003KT 10SM BKN008 OVC070 20/20 A2983 RMK AO2 T01950195
KVJI 220515Z AUTO 28003KT 10SM BKN070 BKN080 20/20 A2983 RMK AO2 T01960196
KVJI 220455Z AUTO 27005KT 10SM SCT012 SCT070 OVC080 20/20 A2984 RMK AO2 T01970197
KVJI 220435Z AUTO 25007KT 10SM SCT006 BKN013 OVC080 20/20 A2985 RMK AO2 T01990199
KVJI 220415Z AUTO 00000KT 5SM BR BKN006 OVC010 20/20 A2985 RMK AO2 T02000200
KVJI 220355Z AUTO 00000KT 5SM BR BKN006 OVC015 20/20 A2985 RMK AO2 T01970197
KVJI 220335Z AUTO 00000KT 5SM BR BKN017 BKN060 BKN085 20/20 A2984 RMK AO2 T01950195
KVJI 220315Z AUTO 00000KT 4SM BR SCT015 SCT060 BKN095 20/20 A2985 RMK AO2 T01950195
KVJI 220255Z AUTO 00000KT 5SM BR SCT015 SCT060 BKN095 20/20 A2985 RMK AO2 T01960196
KVJI 220235Z AUTO 00000KT 5SM BR SCT015 SCT060 SCT095 20/20 A2986 RMK AO2 T01970197
KVJI 220215Z AUTO 00000KT 10SM SCT095 BKN120 20/20 A2986 RMK AO2 T02000200
KVJI 220155Z AUTO 00000KT 7SM BKN120 20/20 A2986 RMK AO2 T02000200
KVJI 220135Z AUTO 00000KT 10SM SCT110 20/20 A2985 RMK AO2 T02020202
KVJI 220120Z AUTO 00000KT 10SM SCT110 20/20 A2985 RMK AO2 T02040203
KVJI 220055Z AUTO 11003KT 10SM CLR 21/20 A2984 RMK AO2 T02060201
KVJI 220035Z AUTO 12004KT 10SM CLR 21/20 A2984 RMK AO2 LTG DSNT NW T02100202
KVJI 220015Z AUTO 00000KT 10SM SCT120 22/20 A2984 RMK AO2 LTG DSNT N AND NW T02160202
KVJI 212355Z AUTO 00000KT 10SM -RA SCT043 SCT075 BKN110 21/20 A2985 RMK AO2 LTG DSNT N AND SW P0006 60006 T02120201 10291 20206
KVJI 212335Z AUTO 00000KT 5SM -RA SCT037 SCT050 OVC100 21/20 A2985 RMK AO2 LTG DSNT E AND SE P0006 T02070195
KVJI 212315Z AUTO 36006KT 10SM VCTSRA SCT026 SCT046 OVC110 21/19 A2985 RMK AO2 LTG DSNT SW THRU NE P0003 T02090194
KVJI 212255Z AUTO 01008G19KT 10SM RA SCT028 BKN041 OVC120 22/19 A2985 RMK AO2 LTG DSNT ALQS T02200193
KVJI 212235Z AUTO 29007KT 10SM -TSRA SCT070 BKN085 OVC120 25/19 A2984 RMK AO2 LTG DSNT ALQS T02510189
KVJI 212215Z AUTO 29005KT 10SM SCT043 SCT060 BKN070 26/18 A2984 RMK AO2 LTG DSNT NW T02580184
KVJI 212155Z AUTO 29009G14KT 10SM BKN044 BKN065 27/18 A2983 RMK AO2 LTG DSNT W AND NW T02680180
KVJI 212135Z AUTO 27009G14KT 10SM BKN044 BKN050 BKN065 28/18 A2982 RMK AO2 LTG DSNT W AND NW T02830175
KVJI 212115Z AUTO 29008KT 10SM SCT044 SCT060 SCT075 28/18 A2983 RMK AO2 LTG DSNT N T02840176
KVJI 212055Z AUTO 28009KT 10SM SCT042 SCT060 27/18 A2982 RMK AO2 LTG DSNT N AND NW T02720176
KVJI 212035Z AUTO 26005KT 10SM SCT040 SCT070 28/18 A2983 RMK AO2 LTG DSNT NW T02790183
KVJI 212015Z AUTO 28010KT 10SM SCT038 SCT045 28/17 A2982 RMK AO2 LTG DSNT NW T02790173